createdAt,value
2018-09-25T00:00:24.421Z,19.47
2018-09-25T00:01:24.429Z,19.47
2018-09-25T00:02:24.457Z,19.49
2018-09-25T00:03:24.470Z,19.45
2018-09-25T00:04:24.628Z,19.37
2018-09-25T00:05:24.499Z,19.32
2018-09-25T00:06:24.519Z,19.34
2018-09-25T00:07:24.519Z,19.42
2018-09-25T00:08:24.543Z,19.31
2018-09-25T00:09:24.660Z,19.34
2018-09-25T00:10:24.668Z,19.32
2018-09-25T00:11:24.578Z,19.34
2018-09-25T00:12:24.586Z,19.27
2018-09-25T00:13:24.616Z,19.24
2018-09-25T00:14:24.779Z,19.24
2018-09-25T00:15:24.635Z,19.13
2018-09-25T00:16:24.657Z,19.12
2018-09-25T00:17:24.665Z,19.20
2018-09-25T00:18:24.685Z,19.15
2018-09-25T00:19:24.800Z,19.06
2018-09-25T00:20:24.700Z,19.09
2018-09-25T00:21:24.727Z,19.20
2018-09-25T00:22:24.740Z,19.12
2018-09-25T00:23:24.744Z,19.07
2018-09-25T00:24:24.880Z,19.13
2018-09-25T00:25:24.779Z,19.02
2018-09-25T00:26:24.793Z,19.02
2018-09-25T00:27:24.799Z,19.07
2018-09-25T00:28:24.824Z,19.02
2018-09-25T00:29:24.988Z,19.00
2018-09-25T00:30:24.842Z,19.00
2018-09-25T00:31:24.854Z,19.00
2018-09-25T00:32:24.872Z,18.99
2018-09-25T00:33:24.891Z,19.07
2018-09-25T00:34:24.900Z,19.05
2018-09-25T00:35:25.058Z,18.90
2018-09-25T00:36:24.936Z,18.93
2018-09-25T00:37:24.941Z,18.90
2018-09-25T00:38:24.954Z,18.84
2018-09-25T00:39:24.980Z,18.78
2018-09-25T00:40:25.089Z,18.76
2018-09-25T00:41:25.006Z,18.81
2018-09-25T00:42:25.016Z,18.78
2018-09-25T00:43:25.023Z,18.74
2018-09-25T00:44:25.048Z,18.72
2018-09-25T00:45:25.216Z,18.74
2018-09-25T00:46:25.082Z,18.69
2018-09-25T00:47:25.081Z,18.65
2018-09-25T00:48:25.103Z,18.63
2018-09-25T00:49:25.119Z,18.76
2018-09-25T00:50:25.285Z,18.66
2018-09-25T00:51:25.152Z,18.68
2018-09-25T00:52:25.162Z,18.65
2018-09-25T00:53:25.175Z,18.68
2018-09-25T00:54:25.179Z,18.68
2018-09-25T00:55:25.353Z,18.54
2018-09-25T00:56:25.209Z,18.59
2018-09-25T00:57:25.241Z,18.50
2018-09-25T00:58:25.249Z,18.61
2018-09-25T00:59:25.242Z,18.54
2018-09-25T01:00:25.428Z,18.53
2018-09-25T01:01:25.284Z,18.39
2018-09-25T01:02:25.305Z,18.45
2018-09-25T01:03:25.300Z,18.35
2018-09-25T01:04:25.327Z,18.39
2018-09-25T01:05:25.489Z,18.39
2018-09-25T01:06:25.357Z,18.36
2018-09-25T01:07:25.375Z,18.36
2018-09-25T01:08:25.365Z,18.38
2018-09-25T01:09:25.381Z,18.34
2018-09-25T01:10:25.549Z,18.24
2018-09-25T01:11:25.423Z,18.21
2018-09-25T01:12:25.442Z,18.29
2018-09-25T01:13:25.438Z,18.32
2018-09-25T01:14:25.459Z,18.34
2018-09-25T01:15:25.568Z,18.32
2018-09-25T01:16:25.476Z,18.27
2018-09-25T01:17:25.509Z,18.23
2018-09-25T01:18:25.513Z,18.21
2018-09-25T01:19:25.523Z,18.08
2018-09-25T01:20:25.690Z,18.10
2018-09-25T01:21:25.546Z,18.10
2018-09-25T01:22:25.563Z,18.13
2018-09-25T01:23:25.582Z,18.26
2018-09-25T01:24:25.594Z,18.20
2018-09-25T01:25:25.765Z,18.27
2018-09-25T01:26:25.626Z,18.35
2018-09-25T01:27:25.645Z,18.31
2018-09-25T01:28:25.636Z,18.36
2018-09-25T01:29:25.672Z,18.32
2018-09-25T01:30:25.782Z,18.34
2018-09-25T01:31:25.695Z,18.41
2018-09-25T01:32:25.693Z,18.42
2018-09-25T01:33:25.712Z,18.39
2018-09-25T01:34:25.729Z,18.36
2018-09-25T01:35:25.839Z,18.42
2018-09-25T01:36:25.760Z,18.35
2018-09-25T01:37:25.781Z,18.42
2018-09-25T01:38:25.784Z,18.35
2018-09-25T01:39:25.800Z,18.27
2018-09-25T01:40:25.966Z,18.29
2018-09-25T01:41:25.816Z,18.32
2018-09-25T01:42:25.841Z,18.32
2018-09-25T01:43:25.861Z,18.32
2018-09-25T01:44:25.857Z,18.32
2018-09-25T01:45:25.885Z,18.29
2018-09-25T01:46:26.049Z,18.31
2018-09-25T01:47:25.912Z,18.27
2018-09-25T01:48:25.911Z,18.26
2018-09-25T01:49:25.939Z,18.31
2018-09-25T01:50:25.950Z,18.27
2018-09-25T01:51:26.212Z,18.27
2018-09-25T01:52:25.969Z,18.34
2018-09-25T01:53:25.996Z,18.20
2018-09-25T01:54:26.007Z,18.29
2018-09-25T01:55:26.007Z,18.29
2018-09-25T01:56:26.170Z,18.27
2018-09-25T01:57:26.048Z,18.26
2018-09-25T01:58:26.058Z,18.26
2018-09-25T01:59:26.073Z,18.24
2018-09-25T02:00:26.083Z,18.29
2018-09-25T02:01:26.258Z,18.27
2018-09-25T02:02:26.113Z,18.29
2018-09-25T02:03:26.116Z,18.24
2018-09-25T02:04:26.131Z,18.31
2018-09-25T02:05:26.155Z,18.32
2018-09-25T02:06:26.307Z,18.35
2018-09-25T02:07:26.170Z,18.34
2018-09-25T02:08:26.180Z,18.31
2018-09-25T02:09:26.206Z,18.29
2018-09-25T02:10:26.223Z,18.29
2018-09-25T02:11:26.475Z,18.36
2018-09-25T02:12:26.239Z,18.36
2018-09-25T02:13:26.262Z,18.26
2018-09-25T02:14:26.275Z,18.36
2018-09-25T02:15:26.276Z,18.34
2018-09-25T02:16:26.455Z,18.24
2018-09-25T02:17:26.308Z,18.27
2018-09-25T02:18:26.317Z,18.29
2018-09-25T02:19:26.345Z,18.27
2018-09-25T02:20:26.370Z,18.31
2018-09-25T02:21:26.469Z,18.29
2018-09-25T02:22:26.377Z,18.26
2018-09-25T02:23:26.385Z,18.26
2018-09-25T02:24:26.409Z,18.24
2018-09-25T02:25:26.423Z,18.23
2018-09-25T02:26:26.686Z,18.23
2018-09-25T02:27:26.450Z,18.23
2018-09-25T02:28:26.453Z,18.32
2018-09-25T02:29:26.484Z,18.24
2018-09-25T02:30:26.480Z,18.31
2018-09-25T02:31:26.643Z,18.31
2018-09-25T02:32:26.506Z,18.27
2018-09-25T02:33:26.517Z,18.23
2018-09-25T02:34:26.545Z,18.13
2018-09-25T02:35:26.567Z,18.24
2018-09-25T02:36:26.726Z,18.32
2018-09-25T02:37:26.594Z,18.19
2018-09-25T02:38:26.604Z,18.29
2018-09-25T02:39:26.608Z,18.24
2018-09-25T02:40:26.612Z,18.29
2018-09-25T02:41:26.738Z,18.29
2018-09-25T02:42:26.651Z,18.31
2018-09-25T02:43:26.667Z,18.23
2018-09-25T02:44:26.663Z,18.41
2018-09-25T02:45:26.695Z,18.32
2018-09-25T02:46:26.851Z,18.34
2018-09-25T02:47:26.705Z,18.49
2018-09-25T02:48:26.723Z,18.47
2018-09-25T02:49:26.733Z,18.51
2018-09-25T02:50:26.752Z,18.63
2018-09-25T02:51:26.945Z,18.50
2018-09-25T02:52:26.790Z,18.50
2018-09-25T02:53:26.803Z,18.56
2018-09-25T02:54:26.809Z,18.68
2018-09-25T02:55:26.827Z,18.66
2018-09-25T02:56:26.828Z,18.68
2018-09-25T02:57:27.004Z,18.68
2018-09-25T02:58:26.872Z,18.72
2018-09-25T02:59:26.877Z,18.71
2018-09-25T03:00:26.896Z,18.82
2018-09-25T03:01:26.913Z,18.82
2018-09-25T03:02:27.072Z,18.91
2018-09-25T03:03:26.936Z,18.91
2018-09-25T03:04:26.939Z,18.90
2018-09-25T03:05:26.957Z,19.00
2018-09-25T03:06:26.979Z,19.00
2018-09-25T03:07:27.152Z,19.05
2018-09-25T03:08:26.997Z,19.05
2018-09-25T03:09:27.008Z,18.96
2018-09-25T03:10:27.033Z,19.02
2018-09-25T03:11:27.037Z,19.00
2018-09-25T03:12:27.210Z,19.00
2018-09-25T03:13:27.072Z,19.19
2018-09-25T03:14:27.081Z,19.13
2018-09-25T03:15:27.104Z,19.09
2018-09-25T03:16:27.106Z,19.15
2018-09-25T03:17:27.232Z,19.06
2018-09-25T03:18:27.144Z,19.02
2018-09-25T03:19:27.291Z,19.05
2018-09-25T03:20:27.181Z,19.05
2018-09-25T03:21:27.193Z,19.05
2018-09-25T03:22:27.345Z,19.07
2018-09-25T03:23:27.218Z,18.99
2018-09-25T03:24:27.233Z,19.00
2018-09-25T03:25:27.234Z,19.00
2018-09-25T03:26:27.256Z,19.12
2018-09-25T03:27:27.409Z,19.09
2018-09-25T03:28:27.288Z,19.13
2018-09-25T03:29:27.290Z,19.09
2018-09-25T03:30:27.312Z,19.07
2018-09-25T03:31:27.359Z,19.16
2018-09-25T03:32:27.492Z,19.15
2018-09-25T03:33:27.359Z,19.23
2018-09-25T03:34:27.376Z,19.10
2018-09-25T03:35:27.377Z,19.05
2018-09-25T03:36:27.393Z,18.97
2018-09-25T03:37:27.559Z,19.05
2018-09-25T03:38:27.413Z,19.00
2018-09-25T03:39:27.442Z,18.90
2018-09-25T03:40:27.454Z,18.96
2018-09-25T03:41:27.464Z,19.06
2018-09-25T03:42:27.774Z,19.05
2018-09-25T03:43:27.486Z,19.06
2018-09-25T03:44:27.496Z,19.10
2018-09-25T03:45:27.521Z,18.99
2018-09-25T03:46:27.537Z,19.02
2018-09-25T03:47:27.691Z,19.07
2018-09-25T03:48:27.560Z,19.12
2018-09-25T03:49:27.570Z,19.13
2018-09-25T03:50:27.597Z,19.13
2018-09-25T03:51:27.607Z,19.13
2018-09-25T03:52:27.708Z,19.15
2018-09-25T03:53:27.631Z,19.13
2018-09-25T03:54:27.638Z,19.07
2018-09-25T03:55:27.654Z,19.10
2018-09-25T03:56:27.675Z,19.13
2018-09-25T03:57:27.826Z,19.13
2018-09-25T03:58:27.697Z,19.17
2018-09-25T03:59:27.767Z,19.16
2018-09-25T04:00:27.735Z,19.13
2018-09-25T04:01:27.749Z,19.23
2018-09-25T04:02:28.015Z,19.23
2018-09-25T04:03:27.776Z,19.17
2018-09-25T04:04:27.789Z,19.20
2018-09-25T04:05:27.806Z,19.13
2018-09-25T04:06:27.815Z,19.09
2018-09-25T04:07:27.829Z,19.12
2018-09-25T04:08:27.985Z,19.12
2018-09-25T04:09:27.860Z,19.06
2018-09-25T04:10:27.864Z,19.00
2018-09-25T04:11:27.887Z,19.05
2018-09-25T04:12:27.888Z,19.09
2018-09-25T04:13:28.066Z,19.05
2018-09-25T04:14:27.932Z,19.09
2018-09-25T04:15:27.950Z,18.99
2018-09-25T04:16:27.943Z,19.05
2018-09-25T04:17:27.979Z,18.97
2018-09-25T04:18:28.125Z,19.02
2018-09-25T04:19:28.000Z,18.99
2018-09-25T04:20:28.012Z,18.99
2018-09-25T04:21:28.020Z,19.05
2018-09-25T04:22:28.027Z,18.96
2018-09-25T04:23:28.194Z,18.99
2018-09-25T04:24:28.062Z,18.97
2018-09-25T04:25:28.079Z,18.99
2018-09-25T04:26:28.128Z,19.06
2018-09-25T04:27:28.109Z,19.05
2018-09-25T04:28:28.220Z,18.99
2018-09-25T04:29:28.130Z,19.00
2018-09-25T04:30:28.141Z,18.99
2018-09-25T04:31:28.158Z,19.05
2018-09-25T04:32:28.177Z,19.07
2018-09-25T04:33:28.284Z,19.00
2018-09-25T04:34:28.213Z,19.02
2018-09-25T04:35:28.211Z,18.96
2018-09-25T04:36:28.233Z,18.99
2018-09-25T04:37:28.243Z,19.05
2018-09-25T04:38:28.373Z,19.00
2018-09-25T04:39:28.264Z,18.99
2018-09-25T04:40:28.296Z,19.05
2018-09-25T04:41:28.318Z,19.15
2018-09-25T04:42:28.318Z,19.10
2018-09-25T04:43:28.439Z,19.02
2018-09-25T04:44:28.336Z,19.06
2018-09-25T04:45:28.363Z,18.99
2018-09-25T04:46:28.388Z,19.06
2018-09-25T04:47:28.383Z,18.99
2018-09-25T04:48:28.555Z,18.99
2018-09-25T04:49:28.421Z,18.96
2018-09-25T04:50:28.432Z,18.97
2018-09-25T04:51:28.449Z,18.97
2018-09-25T04:52:28.466Z,18.90
2018-09-25T04:53:28.630Z,18.86
2018-09-25T04:54:28.483Z,18.89
2018-09-25T04:55:28.504Z,18.94
2018-09-25T04:56:28.508Z,18.96
2018-09-25T04:57:28.537Z,18.99
2018-09-25T04:58:28.685Z,18.94
2018-09-25T04:59:28.554Z,18.99
2018-09-25T05:00:28.581Z,18.96
2018-09-25T05:01:28.588Z,19.05
2018-09-25T05:02:28.593Z,19.07
2018-09-25T05:03:28.762Z,19.00
2018-09-25T05:04:28.633Z,19.05
2018-09-25T05:05:28.641Z,19.15
2018-09-25T05:06:28.656Z,19.09
2018-09-25T05:07:28.664Z,19.15
2018-09-25T05:08:28.832Z,19.17
2018-09-25T05:09:28.687Z,19.17
2018-09-25T05:10:28.718Z,19.09
2018-09-25T05:11:28.715Z,19.12
2018-09-25T05:12:28.738Z,19.13
2018-09-25T05:13:28.908Z,19.13
2018-09-25T05:14:28.773Z,19.09
2018-09-25T05:15:28.777Z,19.20
2018-09-25T05:16:28.800Z,19.16
2018-09-25T05:17:28.801Z,19.10
2018-09-25T05:18:28.828Z,19.15
2018-09-25T05:19:28.938Z,19.09
2018-09-25T05:20:28.843Z,19.24
2018-09-25T05:21:28.868Z,19.25
2018-09-25T05:22:28.885Z,19.23
2018-09-25T05:23:28.902Z,19.31
2018-09-25T05:24:29.065Z,19.32
2018-09-25T05:25:28.927Z,19.40
2018-09-25T05:26:28.931Z,19.31
2018-09-25T05:27:28.953Z,19.37
2018-09-25T05:28:28.964Z,19.31
2018-09-25T05:29:29.236Z,19.34
2018-09-25T05:30:28.988Z,19.19
2018-09-25T05:31:28.997Z,19.19
2018-09-25T05:32:29.013Z,19.24
2018-09-25T05:33:29.031Z,19.24
2018-09-25T05:34:29.206Z,19.20
2018-09-25T05:35:29.068Z,19.25
2018-09-25T05:36:29.082Z,19.20
2018-09-25T05:37:29.102Z,19.16
2018-09-25T05:38:29.094Z,19.25
2018-09-25T05:39:29.227Z,19.24
2018-09-25T05:40:29.141Z,19.19
2018-09-25T05:41:29.143Z,19.25
2018-09-25T05:42:29.154Z,19.30
2018-09-25T05:43:29.163Z,19.24
2018-09-25T05:44:29.453Z,19.35
2018-09-25T05:45:29.217Z,19.34
2018-09-25T05:46:29.213Z,19.25
2018-09-25T05:47:29.240Z,19.30
2018-09-25T05:48:29.324Z,19.35
2018-09-25T05:49:29.408Z,19.25
2018-09-25T05:50:29.269Z,19.34
2018-09-25T05:51:29.296Z,19.34
2018-09-25T05:52:29.295Z,19.42
2018-09-25T05:53:29.319Z,19.42
2018-09-25T05:54:29.474Z,19.32
2018-09-25T05:55:29.348Z,19.35
2018-09-25T05:56:29.362Z,19.38
2018-09-25T05:57:29.381Z,19.28
2018-09-25T05:58:29.395Z,19.34
2018-09-25T05:59:29.545Z,19.35
2018-09-25T06:00:29.407Z,19.30
2018-09-25T06:01:29.439Z,19.31
2018-09-25T06:02:29.433Z,19.47
2018-09-25T06:03:29.455Z,19.43
2018-09-25T06:04:29.581Z,19.49
2018-09-25T06:05:29.493Z,19.46
2018-09-25T06:06:29.497Z,19.46
2018-09-25T06:07:29.526Z,19.42
2018-09-25T06:08:29.532Z,19.35
2018-09-25T06:09:29.735Z,19.49
2018-09-25T06:10:29.557Z,19.52
2018-09-25T06:11:29.563Z,19.50
2018-09-25T06:12:29.598Z,19.50
2018-09-25T06:13:29.600Z,19.53
2018-09-25T06:14:29.774Z,19.52
2018-09-25T06:15:29.642Z,19.43
2018-09-25T06:16:29.642Z,19.49
2018-09-25T06:17:29.661Z,19.53
2018-09-25T06:18:29.682Z,19.47
2018-09-25T06:19:29.843Z,19.43
2018-09-25T06:20:29.697Z,19.61
2018-09-25T06:21:29.725Z,19.60
2018-09-25T06:22:29.735Z,19.56
2018-09-25T06:23:29.742Z,19.47
2018-09-25T06:24:29.763Z,19.53
2018-09-25T06:25:29.917Z,19.49
2018-09-25T06:26:29.784Z,19.50
2018-09-25T06:27:29.807Z,19.50
2018-09-25T06:28:29.811Z,19.53
2018-09-25T06:29:29.830Z,19.52
2018-09-25T06:30:29.839Z,19.53
2018-09-25T06:31:30.013Z,19.52
2018-09-25T06:32:29.869Z,19.47
2018-09-25T06:33:29.894Z,19.49
2018-09-25T06:34:29.938Z,19.60
2018-09-25T06:35:29.908Z,19.63
2018-09-25T06:36:30.078Z,19.47
2018-09-25T06:37:29.939Z,19.49
2018-09-25T06:38:29.961Z,19.52
2018-09-25T06:39:29.984Z,19.57
2018-09-25T06:40:29.988Z,19.50
2018-09-25T06:41:30.145Z,19.49
2018-09-25T06:42:30.013Z,19.50
2018-09-25T06:43:30.024Z,19.57
2018-09-25T06:44:30.044Z,19.46
2018-09-25T06:45:30.047Z,19.53
2018-09-25T06:46:30.228Z,19.52
2018-09-25T06:47:30.083Z,19.49
2018-09-25T06:48:30.101Z,19.43
2018-09-25T06:49:30.124Z,19.50
2018-09-25T06:50:30.120Z,19.53
2018-09-25T06:51:30.399Z,19.50
2018-09-25T06:52:30.163Z,19.50
2018-09-25T06:53:30.166Z,19.56
2018-09-25T06:54:30.196Z,19.60
2018-09-25T06:55:30.202Z,19.61
2018-09-25T06:56:30.374Z,19.63
2018-09-25T06:57:30.224Z,19.60
2018-09-25T06:58:30.238Z,19.67
2018-09-25T06:59:30.247Z,19.63
2018-09-25T07:00:30.271Z,19.71
2018-09-25T07:01:30.431Z,19.64
2018-09-25T07:02:30.297Z,19.63
2018-09-25T07:03:30.313Z,19.64
2018-09-25T07:04:30.323Z,19.63
2018-09-25T07:05:30.355Z,19.72
2018-09-25T07:06:30.574Z,19.67
2018-09-25T07:07:30.377Z,19.79
2018-09-25T07:08:30.388Z,19.80
2018-09-25T07:09:30.410Z,19.75
2018-09-25T07:10:30.631Z,19.74
2018-09-25T07:11:30.590Z,19.72
2018-09-25T07:12:30.446Z,19.72
2018-09-25T07:13:30.452Z,19.79
2018-09-25T07:14:30.480Z,19.70
2018-09-25T07:15:30.485Z,19.79
2018-09-25T07:16:30.663Z,19.72
2018-09-25T07:17:30.537Z,19.79
2018-09-25T07:18:30.536Z,19.75
2018-09-25T07:19:30.554Z,19.75
2018-09-25T07:20:30.569Z,19.78
2018-09-25T07:21:30.732Z,19.78
2018-09-25T07:22:30.597Z,19.78
2018-09-25T07:23:30.609Z,19.78
2018-09-25T07:24:30.626Z,19.71
2018-09-25T07:25:30.628Z,19.72
2018-09-25T07:26:30.788Z,19.72
2018-09-25T07:27:30.663Z,19.78
2018-09-25T07:28:30.675Z,19.79
2018-09-25T07:29:30.685Z,19.78
2018-09-25T07:30:30.696Z,19.86
2018-09-25T07:31:30.868Z,19.86
2018-09-25T07:32:30.724Z,19.87
2018-09-25T07:33:30.743Z,19.82
2018-09-25T07:34:30.777Z,19.86
2018-09-25T07:35:30.765Z,19.74
2018-09-25T07:36:30.799Z,19.72
2018-09-25T07:37:30.951Z,19.74
2018-09-25T07:38:30.814Z,19.78
2018-09-25T07:39:30.884Z,19.72
2018-09-25T07:40:30.851Z,19.70
2018-09-25T07:41:30.859Z,19.71
2018-09-25T07:42:31.019Z,19.74
2018-09-25T07:43:30.896Z,19.75
2018-09-25T07:44:30.892Z,19.78
2018-09-25T07:45:30.926Z,19.70
2018-09-25T07:46:30.930Z,19.68
2018-09-25T07:47:31.098Z,19.72
2018-09-25T07:48:30.961Z,19.74
2018-09-25T07:49:30.979Z,19.72
2018-09-25T07:50:30.992Z,19.80
2018-09-25T07:51:31.021Z,19.72
2018-09-25T07:52:31.175Z,19.72
2018-09-25T07:53:31.039Z,19.78
2018-09-25T07:54:31.039Z,19.83
2018-09-25T07:55:31.138Z,19.75
2018-09-25T07:56:31.068Z,19.72
2018-09-25T07:57:31.245Z,19.72
2018-09-25T07:58:31.105Z,19.72
2018-09-25T07:59:31.125Z,19.78
2018-09-25T08:00:31.130Z,19.75
2018-09-25T08:01:31.154Z,19.71
2018-09-25T08:02:31.314Z,19.75
2018-09-25T08:03:31.240Z,19.72
2018-09-25T08:04:31.187Z,19.72
2018-09-25T08:05:31.208Z,19.72
2018-09-25T08:06:31.231Z,19.74
2018-09-25T08:07:31.324Z,19.75
2018-09-25T08:08:31.241Z,19.72
2018-09-25T08:09:31.252Z,19.78
2018-09-25T08:10:31.288Z,19.75
2018-09-25T08:11:31.292Z,19.67
2018-09-25T08:12:31.451Z,19.75
2018-09-25T08:13:31.322Z,19.70
2018-09-25T08:14:31.344Z,19.80
2018-09-25T08:15:31.427Z,19.75
2018-09-25T08:16:31.368Z,19.68
2018-09-25T08:17:31.535Z,19.67
2018-09-25T08:18:31.399Z,19.67
2018-09-25T08:19:31.398Z,19.64
2018-09-25T08:20:31.416Z,19.63
2018-09-25T08:21:31.448Z,19.61
2018-09-25T08:22:31.606Z,19.53
2018-09-25T08:23:31.472Z,19.56
2018-09-25T08:24:31.469Z,19.57
2018-09-25T08:25:31.485Z,19.52
2018-09-25T08:26:31.526Z,19.55
2018-09-25T08:27:31.669Z,19.55
2018-09-25T08:28:31.524Z,19.55
2018-09-25T08:29:31.545Z,19.43
2018-09-25T08:30:31.568Z,19.55
2018-09-25T08:31:31.594Z,19.55
2018-09-25T08:32:31.732Z,19.56
2018-09-25T08:33:31.618Z,19.43
2018-09-25T08:34:31.614Z,19.40
2018-09-25T08:35:31.628Z,19.56
2018-09-25T08:36:31.651Z,19.46
2018-09-25T08:37:31.820Z,19.40
2018-09-25T08:38:31.685Z,19.47
2018-09-25T08:39:31.821Z,19.50
2018-09-25T08:40:31.703Z,19.45
2018-09-25T08:41:31.725Z,19.53
2018-09-25T08:42:31.741Z,19.47
2018-09-25T08:43:31.901Z,19.43
2018-09-25T08:44:31.753Z,19.42
2018-09-25T08:45:31.773Z,19.37
2018-09-25T08:46:31.800Z,19.34
2018-09-25T08:47:31.791Z,19.34
2018-09-25T08:48:31.806Z,19.34
2018-09-25T08:49:31.970Z,19.35
2018-09-25T08:50:31.853Z,19.35
2018-09-25T08:51:31.852Z,19.37
2018-09-25T08:52:31.857Z,19.34
2018-09-25T08:53:31.896Z,19.42
2018-09-25T08:54:32.047Z,19.37
2018-09-25T08:55:31.925Z,19.32
2018-09-25T08:56:31.936Z,19.34
2018-09-25T08:57:31.935Z,19.30
2018-09-25T08:58:31.955Z,19.32
2018-09-25T08:59:32.109Z,19.37
2018-09-25T09:00:31.992Z,19.45
2018-09-25T09:01:31.992Z,19.47
2018-09-25T09:02:32.013Z,19.34
2018-09-25T09:03:32.033Z,19.35
2018-09-25T09:04:32.198Z,19.34
2018-09-25T09:05:32.050Z,19.37
2018-09-25T09:06:32.075Z,19.40
2018-09-25T09:07:32.075Z,19.50
2018-09-25T09:08:32.099Z,19.47
2018-09-25T09:09:32.251Z,19.37
2018-09-25T09:10:32.115Z,19.50
2018-09-25T09:11:32.142Z,19.45
2018-09-25T09:12:32.146Z,19.49
2018-09-25T09:13:32.159Z,19.42
2018-09-25T09:14:32.323Z,19.34
2018-09-25T09:15:32.183Z,19.32
2018-09-25T09:16:32.197Z,19.32
2018-09-25T09:17:32.231Z,19.35
2018-09-25T09:18:32.244Z,19.20
2018-09-25T09:19:32.542Z,19.30
2018-09-25T09:20:32.268Z,19.38
2018-09-25T09:21:32.277Z,19.32
2018-09-25T09:22:32.293Z,19.35
2018-09-25T09:23:32.299Z,19.37
2018-09-25T09:24:32.410Z,19.31
2018-09-25T09:25:32.336Z,19.35
2018-09-25T09:26:32.357Z,19.31
2018-09-25T09:27:32.371Z,19.35
2018-09-25T09:28:32.365Z,19.31
2018-09-25T09:29:32.544Z,19.46
2018-09-25T09:30:32.410Z,19.53
2018-09-25T09:31:32.410Z,19.47
2018-09-25T09:32:32.470Z,19.52
2018-09-25T09:33:32.448Z,19.56
2018-09-25T09:34:32.616Z,19.65
2018-09-25T09:35:32.481Z,19.52
2018-09-25T09:36:32.484Z,19.56
2018-09-25T09:37:32.503Z,19.72
2018-09-25T09:38:32.524Z,19.64
2018-09-25T09:39:32.678Z,19.63
2018-09-25T09:40:32.555Z,19.63
2018-09-25T09:41:32.760Z,19.65
2018-09-25T09:42:32.573Z,19.70
2018-09-25T09:43:32.581Z,19.67
2018-09-25T09:44:32.764Z,19.70
2018-09-25T09:45:32.625Z,19.70
2018-09-25T09:46:32.638Z,19.75
2018-09-25T09:47:32.658Z,19.78
2018-09-25T09:48:32.655Z,19.78
2018-09-25T09:49:32.821Z,19.71
2018-09-25T09:50:32.773Z,19.74
2018-09-25T09:51:32.710Z,19.71
2018-09-25T09:52:32.723Z,19.74
2018-09-25T09:53:32.750Z,19.71
2018-09-25T09:54:32.748Z,19.78
2018-09-25T09:55:32.854Z,19.71
2018-09-25T09:56:32.850Z,19.74
2018-09-25T09:57:32.801Z,19.79
2018-09-25T09:58:32.809Z,19.82
2018-09-25T09:59:32.813Z,19.85
2018-09-25T10:00:33.039Z,19.87
2018-09-25T10:01:32.858Z,19.92
2018-09-25T10:02:32.861Z,19.98
2018-09-25T10:03:32.870Z,20.01
2018-09-25T10:04:32.897Z,20.01
2018-09-25T10:05:33.060Z,20.00
2018-09-25T10:06:32.942Z,20.00
2018-09-25T10:07:32.932Z,20.00
2018-09-25T10:08:32.967Z,19.93
2018-09-25T10:09:32.973Z,20.10
2018-09-25T10:10:33.141Z,20.10
2018-09-25T10:11:33.003Z,20.05
2018-09-25T10:12:33.160Z,20.11
2018-09-25T10:13:33.026Z,20.15
2018-09-25T10:14:33.051Z,20.20
2018-09-25T10:15:33.211Z,20.12
2018-09-25T10:16:33.065Z,20.19
2018-09-25T10:17:33.080Z,20.23
2018-09-25T10:18:33.098Z,20.26
2018-09-25T10:19:33.124Z,20.22
2018-09-25T10:20:33.279Z,20.34
2018-09-25T10:21:33.157Z,20.30
2018-09-25T10:22:33.160Z,20.26
2018-09-25T10:23:33.172Z,20.30
2018-09-25T10:24:33.201Z,20.23
2018-09-25T10:25:33.371Z,20.20
2018-09-25T10:26:33.234Z,20.23
2018-09-25T10:27:33.241Z,20.23
2018-09-25T10:28:33.253Z,20.29
2018-09-25T10:29:33.257Z,20.27
2018-09-25T10:30:33.390Z,20.37
2018-09-25T10:31:33.289Z,20.29
2018-09-25T10:32:33.311Z,20.34
2018-09-25T10:33:33.337Z,20.48
2018-09-25T10:34:33.345Z,20.57
2018-09-25T10:35:33.506Z,20.56
2018-09-25T10:36:33.381Z,20.60
2018-09-25T10:37:33.401Z,20.61
2018-09-25T10:38:33.399Z,20.58
2018-09-25T10:39:33.420Z,20.68
2018-09-25T10:40:33.689Z,20.67
2018-09-25T10:41:33.457Z,20.81
2018-09-25T10:42:33.484Z,20.79
2018-09-25T10:43:33.485Z,20.93
2018-09-25T10:44:33.506Z,20.96
2018-09-25T10:45:33.664Z,21.03
2018-09-25T10:46:33.530Z,21.03
2018-09-25T10:47:33.546Z,21.01
2018-09-25T10:48:33.569Z,21.03
2018-09-25T10:49:33.573Z,20.98
2018-09-25T10:50:33.738Z,21.04
2018-09-25T10:51:33.608Z,21.13
2018-09-25T10:52:33.672Z,21.15
2018-09-25T10:53:33.653Z,21.18
2018-09-25T10:54:33.668Z,21.18
2018-09-25T10:55:33.873Z,21.31
2018-09-25T10:56:33.687Z,21.31
2018-09-25T10:57:33.707Z,21.41
2018-09-25T10:58:33.732Z,21.41
2018-09-25T10:59:33.745Z,21.55
2018-09-25T11:00:33.765Z,21.58
2018-09-25T11:01:33.926Z,21.67
2018-09-25T11:02:33.786Z,21.68
2018-09-25T11:03:33.811Z,21.70
2018-09-25T11:04:33.829Z,21.76
2018-09-25T11:05:33.856Z,21.68
2018-09-25T11:06:33.961Z,21.68
2018-09-25T11:07:33.871Z,21.59
2018-09-25T11:08:33.931Z,21.71
2018-09-25T11:09:33.891Z,21.66
2018-09-25T11:10:33.919Z,21.67
2018-09-25T11:11:34.075Z,21.67
2018-09-25T11:12:33.961Z,21.66
2018-09-25T11:13:33.961Z,21.70
2018-09-25T11:14:33.989Z,21.73
2018-09-25T11:15:33.996Z,21.77
2018-09-25T11:16:34.173Z,21.77
2018-09-25T11:17:34.050Z,21.78
2018-09-25T11:18:34.053Z,21.86
2018-09-25T11:19:34.067Z,21.89
2018-09-25T11:20:34.089Z,21.89
2018-09-25T11:21:34.245Z,21.94
2018-09-25T11:22:34.109Z,22.04
2018-09-25T11:23:34.153Z,22.14
2018-09-25T11:24:34.145Z,22.31
2018-09-25T11:25:34.252Z,22.33
2018-09-25T11:26:34.334Z,22.48
2018-09-25T11:27:34.221Z,22.46
2018-09-25T11:28:34.270Z,22.45
2018-09-25T11:29:34.226Z,22.48
2018-09-25T11:30:34.242Z,22.55
2018-09-25T11:31:34.421Z,22.64
2018-09-25T11:32:34.282Z,22.60
2018-09-25T11:33:34.296Z,22.71
2018-09-25T11:34:34.325Z,22.81
2018-09-25T11:35:34.330Z,22.82
2018-09-25T11:36:34.505Z,22.85
2018-09-25T11:37:34.363Z,22.85
2018-09-25T11:38:34.389Z,23.01
2018-09-25T11:39:34.398Z,23.03
2018-09-25T11:40:34.412Z,22.99
2018-09-25T11:41:34.585Z,23.14
2018-09-25T11:42:34.453Z,23.19
2018-09-25T11:43:34.475Z,23.18
2018-09-25T11:44:34.509Z,23.32
2018-09-25T11:45:34.505Z,23.47
2018-09-25T11:46:34.693Z,23.62
2018-09-25T11:47:34.546Z,23.71
2018-09-25T11:48:34.571Z,23.90
2018-09-25T11:49:34.590Z,24.08
2018-09-25T11:50:34.607Z,24.02
2018-09-25T11:51:34.755Z,24.17
2018-09-25T11:52:34.639Z,24.08
2018-09-25T11:53:34.662Z,24.11
2018-09-25T11:54:34.679Z,24.12
2018-09-25T11:55:34.696Z,24.14
2018-09-25T11:56:34.887Z,24.29
2018-09-25T11:57:34.884Z,24.36
2018-09-25T11:58:34.843Z,24.19
2018-09-25T11:59:34.770Z,24.12
2018-09-25T12:00:34.780Z,24.09
2018-09-25T12:01:34.804Z,24.17
2018-09-25T12:02:35.074Z,24.33
2018-09-25T12:03:34.836Z,24.34
2018-09-25T12:04:34.857Z,24.34
2018-09-25T12:05:34.869Z,24.39
2018-09-25T12:06:34.895Z,24.39
2018-09-25T12:07:35.057Z,24.34
2018-09-25T12:08:34.919Z,24.42
2018-09-25T12:09:34.959Z,24.29
2018-09-25T12:10:34.966Z,24.14
2018-09-25T12:11:34.988Z,24.17
2018-09-25T12:12:35.151Z,24.22
2018-09-25T12:13:35.074Z,24.14
2018-09-25T12:14:35.038Z,24.21
2018-09-25T12:15:35.058Z,24.19
2018-09-25T12:16:35.079Z,24.15
2018-09-25T12:17:35.325Z,24.21
2018-09-25T12:18:35.125Z,24.15
2018-09-25T12:19:35.146Z,23.99
2018-09-25T12:20:35.164Z,24.03
2018-09-25T12:21:35.172Z,24.08
2018-09-25T12:22:35.343Z,23.97
2018-09-25T12:23:35.373Z,24.11
2018-09-25T12:24:35.240Z,24.14
2018-09-25T12:25:35.251Z,24.22
2018-09-25T12:26:35.280Z,24.18
2018-09-25T12:27:35.441Z,24.12
2018-09-25T12:28:35.306Z,24.00
2018-09-25T12:29:35.329Z,23.93
2018-09-25T12:30:35.363Z,23.87
2018-09-25T12:31:35.369Z,23.84
2018-09-25T12:32:35.563Z,23.94
2018-09-25T12:33:35.422Z,24.00
2018-09-25T12:34:35.425Z,23.90
2018-09-25T12:35:35.447Z,23.85
2018-09-25T12:36:35.468Z,23.92
2018-09-25T12:37:35.644Z,23.96
2018-09-25T12:38:35.534Z,23.92
2018-09-25T12:39:35.525Z,23.96
2018-09-25T12:40:35.535Z,24.07
2018-09-25T12:41:35.558Z,24.19
2018-09-25T12:42:35.821Z,24.39
2018-09-25T12:43:35.607Z,24.67
2018-09-25T12:44:35.627Z,24.83
2018-09-25T12:45:35.649Z,24.97
2018-09-25T12:46:35.654Z,25.11
2018-09-25T12:47:35.680Z,24.93
2018-09-25T12:48:35.940Z,25.04
2018-09-25T12:49:35.728Z,25.09
2018-09-25T12:50:35.743Z,25.01
2018-09-25T12:51:35.767Z,25.09
2018-09-25T12:52:35.836Z,24.96